createdAt,value
2023-03-15T00:02:01.370Z,22.15
2023-03-15T00:04:28.781Z,12.82
2023-03-15T00:06:55.684Z,15.43
2023-03-15T00:09:22.412Z,10.35
2023-03-15T00:11:49.492Z,8.63
2023-03-15T00:14:16.206Z,13.57
2023-03-15T00:16:43.621Z,10.82
2023-03-15T00:19:11.750Z,11.30
2023-03-15T00:21:40.245Z,8.73
2023-03-15T00:24:07.377Z,8.63
2023-03-15T00:26:34.093Z,8.98
2023-03-15T00:29:00.763Z,14.65
2023-03-15T00:31:30.977Z,7.70
2023-03-15T00:33:58.236Z,8.77
2023-03-15T00:36:25.352Z,5.63
2023-03-15T00:38:54.111Z,10.65
2023-03-15T00:41:22.483Z,6.80
2023-03-15T00:43:49.493Z,16.45
2023-03-15T00:46:17.432Z,7.20
2023-03-15T00:48:47.987Z,14.25
2023-03-15T00:51:17.831Z,12.20
2023-03-15T00:53:45.921Z,6.82
2023-03-15T00:56:15.781Z,8.93
2023-03-15T00:58:43.112Z,12.30
2023-03-15T01:01:15.543Z,12.68
2023-03-15T01:06:11.824Z,5.22
2023-03-15T01:08:38.753Z,5.28
2023-03-15T01:11:09.303Z,11.20
2023-03-15T01:13:36.481Z,5.47
2023-03-15T01:16:03.988Z,7.53
2023-03-15T01:18:31.133Z,6.43
2023-03-15T01:20:58.404Z,8.10
2023-03-15T01:23:25.324Z,7.03
2023-03-15T01:25:52.073Z,9.40
2023-03-15T01:28:18.732Z,7.32
2023-03-15T01:30:52.861Z,7.78
2023-03-15T01:33:21.002Z,7.97
2023-03-15T01:35:48.428Z,10.82
2023-03-15T01:38:15.298Z,6.78
2023-03-15T01:40:46.346Z,8.73
2023-03-15T01:43:16.663Z,14.32
2023-03-15T01:46:01.589Z,7.75
2023-03-15T01:48:39.732Z,5.72
2023-03-15T01:51:16.437Z,7.47
2023-03-15T01:53:48.179Z,4.43
2023-03-15T01:56:15.506Z,9.23
2023-03-15T01:58:45.665Z,8.15
2023-03-15T02:01:14.516Z,10.25
2023-03-15T02:03:46.709Z,5.45
2023-03-15T02:06:19.550Z,7.25
2023-03-15T02:08:51.842Z,8.77
2023-03-15T02:11:21.618Z,6.50
2023-03-15T02:13:50.057Z,6.95
2023-03-15T02:16:17.935Z,7.05
2023-03-15T02:18:44.807Z,4.63
2023-03-15T02:21:32.411Z,4.95
2023-03-15T02:24:04.899Z,6.25
2023-03-15T02:26:43.215Z,5.63
2023-03-15T02:29:10.486Z,10.40
2023-03-15T02:31:38.244Z,7.90
2023-03-15T02:34:07.472Z,9.02
2023-03-15T02:36:36.088Z,9.25
2023-03-15T02:39:16.706Z,5.90
2023-03-15T02:41:48.274Z,5.53
2023-03-15T02:44:37.420Z,3.73
2023-03-15T02:47:08.742Z,5.85
2023-03-15T02:49:42.774Z,10.55
2023-03-15T02:52:10.041Z,4.78
2023-03-15T02:54:36.766Z,7.35
2023-03-15T02:57:06.568Z,6.85
2023-03-15T02:59:33.256Z,4.78
2023-03-15T03:01:59.985Z,6.78
2023-03-15T03:04:26.750Z,8.70
2023-03-15T03:06:53.399Z,9.20
2023-03-15T03:09:20.547Z,6.32
2023-03-15T03:11:47.358Z,6.07
2023-03-15T03:14:15.522Z,7.80
2023-03-15T03:16:42.808Z,6.30
2023-03-15T03:19:12.632Z,7.22
2023-03-15T03:21:39.459Z,7.20
2023-03-15T03:24:06.399Z,7.63
2023-03-15T03:26:33.356Z,9.38
2023-03-15T03:29:00.129Z,6.70
2023-03-15T03:31:28.172Z,4.30
2023-03-15T03:33:57.404Z,5.43
2023-03-15T03:36:25.034Z,4.88
2023-03-15T03:38:52.450Z,8.25
2023-03-15T03:41:20.879Z,6.13
2023-03-15T03:43:47.516Z,4.78
2023-03-15T03:46:14.207Z,5.63
2023-03-15T03:48:40.912Z,4.97
2023-03-15T03:51:07.601Z,6.13
2023-03-15T03:53:34.184Z,5.35
2023-03-15T03:56:04.157Z,3.10
2023-03-15T03:58:30.845Z,7.05
2023-03-15T04:00:57.642Z,3.75
2023-03-15T04:03:27.358Z,3.28
2023-03-15T04:05:55.361Z,6.15
2023-03-15T04:08:24.352Z,4.38
2023-03-15T04:10:55.406Z,6.78
2023-03-15T04:13:25.563Z,8.93
2023-03-15T04:15:52.381Z,11.10
2023-03-15T04:18:19.135Z,5.18
2023-03-15T04:20:47.388Z,4.78
2023-03-15T04:23:15.671Z,8.35
2023-03-15T04:25:42.682Z,6.47
2023-03-15T04:28:12.900Z,3.63
2023-03-15T04:30:39.600Z,8.75
2023-03-15T04:33:06.248Z,6.00
2023-03-15T04:35:34.874Z,5.53
2023-03-15T04:38:02.171Z,4.07
2023-03-15T04:40:29.135Z,6.15
2023-03-15T04:42:56.131Z,6.70
2023-03-15T04:45:26.975Z,7.10
2023-03-15T04:47:54.350Z,3.90
2023-03-15T04:50:22.226Z,4.57
2023-03-15T04:52:49.220Z,6.68
2023-03-15T04:55:15.938Z,5.40
2023-03-15T04:57:42.954Z,3.55
2023-03-15T05:00:12.975Z,5.72
2023-03-15T05:02:41.780Z,5.50
2023-03-15T05:05:10.417Z,7.90
2023-03-15T05:07:38.147Z,4.30
2023-03-15T05:10:06.525Z,8.75
2023-03-15T05:12:33.990Z,8.93
2023-03-15T05:15:00.899Z,5.03
2023-03-15T05:17:28.018Z,3.28
2023-03-15T05:19:54.697Z,4.18
2023-03-15T05:22:25.602Z,6.13
2023-03-15T05:24:53.823Z,9.63
2023-03-15T05:27:20.984Z,3.47
2023-03-15T05:29:47.658Z,6.07
2023-03-15T05:32:14.415Z,6.75
2023-03-15T05:34:42.920Z,5.07
2023-03-15T05:37:09.890Z,3.78
2023-03-15T05:39:36.556Z,4.40
2023-03-15T05:42:03.234Z,3.90
2023-03-15T05:44:29.831Z,6.07
2023-03-15T05:46:56.512Z,5.75
2023-03-15T05:49:23.130Z,4.30
2023-03-15T05:51:49.778Z,2.55
2023-03-15T05:54:16.437Z,5.65
2023-03-15T05:56:43.094Z,4.25
2023-03-15T05:59:09.785Z,2.97
2023-03-15T06:01:36.392Z,4.60
2023-03-15T06:04:03.129Z,3.17
2023-03-15T06:06:31.547Z,3.40
2023-03-15T06:08:59.921Z,3.72
2023-03-15T06:11:26.560Z,11.35
2023-03-15T06:13:53.270Z,4.53
2023-03-15T06:16:19.991Z,5.32
2023-03-15T06:18:46.787Z,6.75
2023-03-15T06:21:13.472Z,7.97
2023-03-15T06:23:40.725Z,6.03
2023-03-15T06:26:07.662Z,3.25
2023-03-15T06:28:34.506Z,4.22
2023-03-15T06:31:09.093Z,4.57
2023-03-15T06:33:35.848Z,7.57
2023-03-15T06:36:03.019Z,4.47
2023-03-15T06:38:31.264Z,9.13
2023-03-15T06:41:02.106Z,4.85
2023-03-15T06:43:28.878Z,4.88
2023-03-15T06:45:56.813Z,4.07
2023-03-15T06:48:23.460Z,6.30
2023-03-15T06:50:50.137Z,4.72
2023-03-15T06:53:16.951Z,4.45
2023-03-15T06:55:44.436Z,5.45
2023-03-15T06:58:12.299Z,9.40
2023-03-15T07:00:39.362Z,12.68
2023-03-15T07:03:06.048Z,9.15
2023-03-15T07:05:32.723Z,13.10
2023-03-15T07:07:59.466Z,12.43
2023-03-15T07:10:26.072Z,9.93
2023-03-15T07:12:53.133Z,10.98
2023-03-15T07:15:19.825Z,6.13
2023-03-15T07:17:46.486Z,5.35
2023-03-15T07:20:13.313Z,3.20
2023-03-15T07:22:40.180Z,2.75
2023-03-15T07:25:07.566Z,5.80
2023-03-15T07:27:34.396Z,4.15
2023-03-15T07:30:01.358Z,8.00
2023-03-15T07:32:28.294Z,4.90
2023-03-15T07:34:58.369Z,7.25
2023-03-15T07:37:25.057Z,17.42
2023-03-15T07:39:51.760Z,4.93
2023-03-15T07:42:18.613Z,7.38
2023-03-15T07:44:45.345Z,1.60
2023-03-15T07:47:12.150Z,4.20
2023-03-15T07:49:38.746Z,4.93
2023-03-15T07:52:05.548Z,1.88
2023-03-15T07:54:34.437Z,4.78
2023-03-15T07:57:01.113Z,2.88
2023-03-15T07:59:27.815Z,11.48
2023-03-15T08:01:54.943Z,5.78
2023-03-15T08:04:21.573Z,4.00
2023-03-15T08:06:48.292Z,7.40
2023-03-15T08:09:15.469Z,5.72
2023-03-15T08:11:43.438Z,5.55
2023-03-15T08:14:11.396Z,3.85
2023-03-15T08:16:38.157Z,5.10
2023-03-15T08:19:04.953Z,3.85
2023-03-15T08:21:33.760Z,4.28
2023-03-15T08:24:01.288Z,4.45
2023-03-15T08:26:27.948Z,5.00
2023-03-15T08:28:54.593Z,6.97
2023-03-15T08:31:21.640Z,8.90
2023-03-15T08:33:49.000Z,6.20
2023-03-15T08:36:15.670Z,3.83
2023-03-15T08:38:42.309Z,6.55
2023-03-15T08:41:08.911Z,5.60
2023-03-15T08:43:35.538Z,15.43
2023-03-15T08:46:02.305Z,6.82
2023-03-15T08:48:29.675Z,5.60
2023-03-15T08:50:57.603Z,8.07
2023-03-15T08:53:24.315Z,13.25
2023-03-15T08:55:52.029Z,10.00
2023-03-15T08:58:18.649Z,8.85
2023-03-15T09:00:45.297Z,5.20
2023-03-15T09:03:13.063Z,6.47
2023-03-15T09:05:40.333Z,10.35
2023-03-15T09:08:07.080Z,4.28
2023-03-15T09:10:34.433Z,6.90
2023-03-15T09:13:01.075Z,4.70
2023-03-15T09:15:29.115Z,3.55
2023-03-15T09:17:55.769Z,8.13
2023-03-15T09:20:28.149Z,6.97
2023-03-15T09:25:24.053Z,7.68
2023-03-15T09:27:51.176Z,7.85
2023-03-15T09:30:18.380Z,3.55
2023-03-15T09:32:45.932Z,1.65
2023-03-15T09:35:16.055Z,3.92
2023-03-15T09:37:45.607Z,1.73
2023-03-15T09:40:24.064Z,7.88
2023-03-15T09:43:14.023Z,2.40
2023-03-15T09:45:59.764Z,3.10
2023-03-15T09:48:26.421Z,2.50
2023-03-15T09:51:13.857Z,6.03
2023-03-15T09:53:50.584Z,2.95
2023-03-15T09:56:28.166Z,8.30
2023-03-15T09:58:59.796Z,5.18
2023-03-15T10:01:33.042Z,2.65
2023-03-15T10:04:08.070Z,6.40
2023-03-15T10:06:38.419Z,5.07
2023-03-15T10:09:13.885Z,2.97
2023-03-15T10:12:17.762Z,4.70
2023-03-15T10:15:12.156Z,3.75
2023-03-15T10:17:47.923Z,4.30
2023-03-15T10:20:25.760Z,9.35
2023-03-15T10:22:59.653Z,5.15
2023-03-15T10:25:29.350Z,3.17
2023-03-15T10:28:08.124Z,5.40
2023-03-15T10:30:40.658Z,3.47
2023-03-15T10:33:10.123Z,6.30
2023-03-15T10:35:38.082Z,7.50
2023-03-15T10:38:15.556Z,5.00
2023-03-15T10:40:54.558Z,6.88
2023-03-15T10:43:25.236Z,4.65
2023-03-15T10:46:04.199Z,5.53
2023-03-15T10:48:33.308Z,7.43
2023-03-15T10:51:28.945Z,12.20
2023-03-15T10:54:02.454Z,5.80
2023-03-15T10:56:32.261Z,5.78
2023-03-15T10:59:11.837Z,1.98
2023-03-15T11:01:40.071Z,2.72
2023-03-15T11:04:06.738Z,6.05
2023-03-15T11:06:46.180Z,2.92
2023-03-15T11:09:19.055Z,3.20
2023-03-15T11:11:49.699Z,4.63
2023-03-15T11:14:18.361Z,2.72
2023-03-15T11:16:51.864Z,3.55
2023-03-15T11:19:22.516Z,4.97
2023-03-15T11:21:51.502Z,8.45
2023-03-15T11:24:30.258Z,6.15
2023-03-15T11:27:03.647Z,1.90
2023-03-15T11:29:35.624Z,5.60
2023-03-15T11:32:11.349Z,2.65
2023-03-15T11:34:40.801Z,1.67
2023-03-15T11:37:13.670Z,5.85
2023-03-15T11:40:10.405Z,1.98
2023-03-15T11:42:47.245Z,2.80
2023-03-15T11:45:27.463Z,4.38
2023-03-15T11:47:58.790Z,3.30
2023-03-15T11:50:25.462Z,2.72
2023-03-15T11:52:53.104Z,4.60
2023-03-15T11:55:23.134Z,2.55
2023-03-15T11:57:51.071Z,6.05
2023-03-15T12:00:18.322Z,7.18
2023-03-15T12:02:50.992Z,2.03
2023-03-15T12:05:49.035Z,5.40
2023-03-15T12:08:54.658Z,4.63
2023-03-15T12:11:21.259Z,8.50
2023-03-15T12:13:56.955Z,8.95
2023-03-15T12:16:26.825Z,11.18
2023-03-15T12:19:02.980Z,5.78
2023-03-15T12:21:41.570Z,9.27
2023-03-15T12:24:17.365Z,4.90
2023-03-15T12:26:46.423Z,3.65
2023-03-15T12:29:18.664Z,3.10
2023-03-15T12:31:59.427Z,6.45
2023-03-15T12:34:51.793Z,7.68
2023-03-15T12:37:22.981Z,7.43
2023-03-15T12:39:59.307Z,4.60
2023-03-15T12:42:31.717Z,6.57
2023-03-15T12:45:16.954Z,7.18
2023-03-15T12:47:50.870Z,8.52
2023-03-15T12:50:39.339Z,4.53
2023-03-15T12:53:17.424Z,3.80
2023-03-15T12:55:45.991Z,4.80
2023-03-15T12:58:17.786Z,3.50
2023-03-15T13:00:45.063Z,8.52
2023-03-15T13:03:18.955Z,3.88
2023-03-15T13:06:11.420Z,4.88
2023-03-15T13:08:43.820Z,4.03
2023-03-15T13:11:27.405Z,10.57
2023-03-15T13:14:12.947Z,4.38
2023-03-15T13:16:48.574Z,4.82
2023-03-15T13:19:17.195Z,2.17
2023-03-15T13:22:03.863Z,5.80
2023-03-15T13:24:57.902Z,4.65
2023-03-15T13:27:27.505Z,6.40
2023-03-15T13:29:54.305Z,3.35
2023-03-15T13:32:23.304Z,4.15
2023-03-15T13:34:50.285Z,4.03
2023-03-15T13:37:29.274Z,3.80
2023-03-15T13:40:12.009Z,3.53
2023-03-15T13:42:42.897Z,2.25
2023-03-15T13:45:09.529Z,3.78
2023-03-15T13:47:36.182Z,5.28
2023-03-15T13:50:04.745Z,4.25
2023-03-15T13:52:33.662Z,4.00
2023-03-15T13:55:03.797Z,2.88
2023-03-15T13:57:32.567Z,6.13
2023-03-15T14:00:11.106Z,3.78
2023-03-15T14:02:47.785Z,4.72
2023-03-15T14:05:27.299Z,3.45
2023-03-15T14:08:05.901Z,3.22
2023-03-15T14:10:40.448Z,4.65
2023-03-15T14:13:27.429Z,8.68
2023-03-15T14:16:16.164Z,8.48
2023-03-15T14:18:44.930Z,10.45
2023-03-15T14:21:34.429Z,8.13
2023-03-15T14:24:07.409Z,7.28
2023-03-15T14:26:36.661Z,9.48
2023-03-15T14:29:15.851Z,5.65
2023-03-15T14:31:49.908Z,16.17
2023-03-15T14:34:30.072Z,5.90
2023-03-15T14:36:59.926Z,8.70
2023-03-15T14:39:31.312Z,12.75
2023-03-15T14:41:57.951Z,8.93
2023-03-15T14:44:24.675Z,11.20
2023-03-15T14:46:51.727Z,3.72
2023-03-15T14:49:28.891Z,3.03
2023-03-15T14:52:01.511Z,4.35
2023-03-15T14:54:33.763Z,9.48
2023-03-15T14:57:00.457Z,2.92
2023-03-15T14:59:27.140Z,2.30
2023-03-15T15:01:59.149Z,5.25
2023-03-15T15:04:32.168Z,4.82
2023-03-15T15:06:59.387Z,3.22
2023-03-15T15:09:28.733Z,5.57
2023-03-15T15:11:55.775Z,1.88
2023-03-15T15:14:22.743Z,2.45
2023-03-15T15:16:49.551Z,10.27
2023-03-15T15:19:16.340Z,2.38
2023-03-15T15:21:43.811Z,13.65
2023-03-15T15:24:16.249Z,4.35
2023-03-15T15:26:43.865Z,4.22
2023-03-15T15:29:15.633Z,8.55
2023-03-15T15:31:43.358Z,2.17
2023-03-15T15:34:11.324Z,4.05
2023-03-15T15:36:41.083Z,3.65
2023-03-15T15:39:31.478Z,1.77
2023-03-15T15:41:58.160Z,4.47
2023-03-15T15:44:27.737Z,4.05
2023-03-15T15:46:54.469Z,4.05
2023-03-15T15:49:21.240Z,5.10
2023-03-15T15:51:49.882Z,4.00
2023-03-15T15:54:26.252Z,5.22
2023-03-15T15:57:00.793Z,8.60
2023-03-15T15:59:28.431Z,6.50
2023-03-15T16:02:01.248Z,9.68
2023-03-15T16:04:29.654Z,6.35
2023-03-15T16:06:59.467Z,10.05
2023-03-15T16:09:28.350Z,9.93
2023-03-15T16:11:55.489Z,8.38
2023-03-15T16:14:22.094Z,13.68
2023-03-15T16:16:48.732Z,16.83
2023-03-15T16:19:15.432Z,9.63
2023-03-15T16:21:45.439Z,4.28
2023-03-15T16:24:19.358Z,6.75
2023-03-15T16:26:48.102Z,2.40
2023-03-15T16:29:21.251Z,8.90
2023-03-15T16:31:48.606Z,40.40
2023-03-15T16:34:17.436Z,14.38
2023-03-15T16:36:49.161Z,155.27
2023-03-15T16:39:17.120Z,153.93
2023-03-15T16:41:43.803Z,209.77
2023-03-15T16:44:16.409Z,396.80
2023-03-15T16:46:43.637Z,170.70
2023-03-15T16:49:10.458Z,87.72
2023-03-15T16:51:40.895Z,115.88
2023-03-15T16:54:19.583Z,80.35
2023-03-15T16:56:55.585Z,54.63
2023-03-15T16:59:22.560Z,38.58
2023-03-15T17:01:50.608Z,33.50
2023-03-15T17:04:17.505Z,20.92
2023-03-15T17:06:45.999Z,19.95
2023-03-15T17:09:17.429Z,29.08
2023-03-15T17:11:47.256Z,18.10
2023-03-15T17:14:18.060Z,20.02
2023-03-15T17:16:44.663Z,15.73
2023-03-15T17:19:15.345Z,17.42
2023-03-15T17:21:43.025Z,18.92
2023-03-15T17:24:11.354Z,26.05
2023-03-15T17:26:38.625Z,27.52
2023-03-15T17:29:05.696Z,28.50
2023-03-15T17:31:34.464Z,22.65
2023-03-15T17:34:02.164Z,31.15
2023-03-15T17:36:35.968Z,35.28
2023-03-15T17:39:02.853Z,36.97
2023-03-15T17:41:33.095Z,42.33
2023-03-15T17:43:59.933Z,67.00
2023-03-15T17:46:31.526Z,42.72
2023-03-15T17:48:59.623Z,21.77
2023-03-15T17:51:30.536Z,36.20
2023-03-15T17:53:59.640Z,37.65
2023-03-15T17:56:28.867Z,33.35
2023-03-15T17:58:55.834Z,35.05
2023-03-15T18:01:26.240Z,34.63
2023-03-15T18:03:55.734Z,27.63
2023-03-15T18:06:24.190Z,20.75
2023-03-15T18:08:51.554Z,28.38
2023-03-15T18:11:29.607Z,19.25
2023-03-15T18:13:56.895Z,22.58
2023-03-15T18:16:24.017Z,23.92
2023-03-15T18:18:53.092Z,30.30
2023-03-15T18:21:22.752Z,22.25
2023-03-15T18:23:50.263Z,25.92
2023-03-15T18:26:18.189Z,19.67
2023-03-15T18:28:44.871Z,21.45
2023-03-15T18:31:25.358Z,25.10
2023-03-15T18:33:53.261Z,27.55
2023-03-15T18:36:20.626Z,23.67
2023-03-15T18:38:47.536Z,25.77
2023-03-15T18:41:23.599Z,25.35
2023-03-15T18:43:51.703Z,32.08
2023-03-15T18:46:20.354Z,29.13
2023-03-15T18:48:48.085Z,22.45
2023-03-15T18:51:15.512Z,17.38
2023-03-15T18:53:43.288Z,16.48
2023-03-15T18:56:19.326Z,19.20
2023-03-15T18:58:50.877Z,28.88
2023-03-15T19:01:19.853Z,18.75
2023-03-15T19:03:46.531Z,29.50
2023-03-15T19:06:13.861Z,18.40
2023-03-15T19:08:41.043Z,19.48
2023-03-15T19:11:08.525Z,21.55
2023-03-15T19:13:35.438Z,18.80
2023-03-15T19:16:02.469Z,28.42
2023-03-15T19:18:29.233Z,28.63
2023-03-15T19:20:55.832Z,16.95
2023-03-15T19:23:22.548Z,25.88
2023-03-15T19:25:49.182Z,17.55
2023-03-15T19:28:16.132Z,15.45
2023-03-15T19:30:42.856Z,28.33
2023-03-15T19:33:09.669Z,15.02
2023-03-15T19:35:36.605Z,13.43
2023-03-15T19:38:04.109Z,26.50
2023-03-15T19:40:30.803Z,16.67
2023-03-15T19:42:57.555Z,14.80
2023-03-15T19:45:24.392Z,14.65
2023-03-15T19:47:51.090Z,10.82
2023-03-15T19:50:17.758Z,9.15
2023-03-15T19:52:47.549Z,9.82
2023-03-15T19:55:17.209Z,7.68
2023-03-15T19:57:44.064Z,6.40
2023-03-15T20:00:16.240Z,11.20
2023-03-15T20:05:12.119Z,3.83
2023-03-15T20:07:39.431Z,7.13
2023-03-15T20:10:08.582Z,5.53
2023-03-15T20:12:40.228Z,5.65
2023-03-15T20:15:10.061Z,9.75
2023-03-15T20:17:37.719Z,10.95
2023-03-15T20:20:13.199Z,9.18
2023-03-15T20:22:41.754Z,13.65
2023-03-15T20:25:09.979Z,11.40
2023-03-15T20:27:37.347Z,11.25
2023-03-15T20:30:06.051Z,11.82
2023-03-15T20:32:32.910Z,8.60
2023-03-15T20:35:01.163Z,10.95
2023-03-15T20:37:30.357Z,12.60
2023-03-15T20:39:57.091Z,11.75
2023-03-15T20:42:24.777Z,12.50
2023-03-15T20:44:51.443Z,13.73
2023-03-15T20:47:18.270Z,15.60
2023-03-15T20:49:46.178Z,14.52
2023-03-15T20:52:12.771Z,15.48
2023-03-15T20:54:39.398Z,18.70
2023-03-15T20:57:07.115Z,11.75
2023-03-15T20:59:33.810Z,17.95
2023-03-15T21:02:00.955Z,18.02
2023-03-15T21:04:28.446Z,15.32
2023-03-15T21:06:55.693Z,18.50
2023-03-15T21:09:22.503Z,17.15
2023-03-15T21:11:49.143Z,20.83
2023-03-15T21:14:15.854Z,16.35
2023-03-15T21:16:42.518Z,15.93
2023-03-15T21:19:09.226Z,17.38
2023-03-15T21:21:36.148Z,17.80
2023-03-15T21:24:06.323Z,21.02
2023-03-15T21:26:33.011Z,25.05
2023-03-15T21:28:59.730Z,26.25
2023-03-15T21:31:26.494Z,37.45
2023-03-15T21:33:53.165Z,40.35
2023-03-15T21:36:19.862Z,38.58
2023-03-15T21:38:46.764Z,33.15
2023-03-15T21:41:13.507Z,36.22
2023-03-15T21:43:41.522Z,33.90
2023-03-15T21:46:14.567Z,29.70
2023-03-15T21:48:42.007Z,20.30
2023-03-15T21:51:09.702Z,18.95
2023-03-15T21:53:36.743Z,12.02
2023-03-15T21:56:04.058Z,15.75
2023-03-15T21:58:31.392Z,16.30
2023-03-15T22:01:06.150Z,27.42
2023-03-15T22:03:33.957Z,34.20
2023-03-15T22:06:01.041Z,35.33
2023-03-15T22:08:28.395Z,27.27
2023-03-15T22:10:57.034Z,25.15
2023-03-15T22:13:24.010Z,23.75
2023-03-15T22:15:52.371Z,20.65
2023-03-15T22:18:20.010Z,24.40
2023-03-15T22:20:48.924Z,20.65
2023-03-15T22:23:15.570Z,23.92
2023-03-15T22:25:42.803Z,21.45
2023-03-15T22:28:10.345Z,24.95
2023-03-15T22:30:37.188Z,17.38
2023-03-15T22:33:04.636Z,22.83
2023-03-15T22:35:31.759Z,18.38
2023-03-15T22:37:58.831Z,18.05
2023-03-15T22:40:28.017Z,33.35
2023-03-15T22:42:57.250Z,41.15
2023-03-15T22:45:26.184Z,31.30
2023-03-15T22:47:53.497Z,12.52
2023-03-15T22:50:20.504Z,9.57
2023-03-15T22:52:47.665Z,9.13
2023-03-15T22:55:14.492Z,12.65
2023-03-15T22:57:41.115Z,11.82
2023-03-15T23:00:14.173Z,10.38
2023-03-15T23:02:44.677Z,3.45
2023-03-15T23:05:12.813Z,2.47
2023-03-15T23:07:40.060Z,3.60
2023-03-15T23:10:07.578Z,1.73
2023-03-15T23:12:36.534Z,3.45
2023-03-15T23:15:04.526Z,2.30
2023-03-15T23:17:31.639Z,2.38
2023-03-15T23:19:58.394Z,1.75
2023-03-15T23:22:25.268Z,0.50
2023-03-15T23:24:51.895Z,1.55
2023-03-15T23:27:18.877Z,0.70
2023-03-15T23:29:54.196Z,2.35
2023-03-15T23:32:22.007Z,5.07
2023-03-15T23:34:48.942Z,6.00
2023-03-15T23:37:15.617Z,8.98
2023-03-15T23:39:42.914Z,10.15
2023-03-15T23:42:10.318Z,12.00
2023-03-15T23:44:37.661Z,8.63
2023-03-15T23:47:05.776Z,7.07
2023-03-15T23:49:33.337Z,4.78
2023-03-15T23:52:05.940Z,3.13
2023-03-15T23:54:40.263Z,2.70
2023-03-15T23:57:12.548Z,1.10
